Time;durP1;ratioP1;P1;durP2;ratioP2;P2;SDS_P1;SDS_P2;PMS_P1;PMS_P2;Temp;Humidity;BMP_temperature;BMP_pressure;BME280_temperature;BME280_humidity;BME280_pressure;Samples;Min_cycle;Max_cycle;Signal;HPM_P1;HPM_P2
2021/04/10 00:00:27;;;;;;;13.85;3.03;;;5.50;93.80;;;;;;5136335;27;20047;-69
2021/04/10 00:02:53;;;;;;;16.27;4.82;;;5.40;93.60;;;;;;5135954;27;20506;-69
2021/04/10 00:05:22;;;;;;;13.80;4.03;;;5.40;93.60;;;;;;5135684;27;20043;-69
2021/04/10 00:07:48;;;;;;;17.20;3.53;;;5.40;93.60;;;;;;5136102;27;20058;-69
2021/04/10 00:10:14;;;;;;;10.13;4.25;;;5.50;93.60;;;;;;5135631;27;20475;-69
2021/04/10 00:12:41;;;;;;;15.25;3.22;;;5.50;93.70;;;;;;5135926;27;20084;-69
2021/04/10 00:15:10;;;;;;;12.50;3.47;;;5.50;93.90;;;;;;5135547;27;20031;-69
2021/04/10 00:17:36;;;;;;;10.00;3.65;;;5.60;93.60;;;;;;5135608;27;20467;-69
2021/04/10 00:20:04;;;;;;;9.07;3.95;;;5.40;93.60;;;;;;5135866;27;20036;-69
2021/04/10 00:22:29;;;;;;;13.73;3.50;;;5.30;93.70;;;;;;5135544;27;20043;-69
2021/04/10 00:24:55;;;;;;;11.07;2.92;;;5.30;93.70;;;;;;5135568;27;20037;-69
2021/04/10 00:27:21;;;;;;;13.80;3.42;;;5.30;93.70;;;;;;5135419;27;20031;-69
2021/04/10 00:29:46;;;;;;;10.90;3.25;;;5.30;93.70;;;;;;5135500;27;20050;-69
2021/04/10 00:32:12;;;;;;;10.32;3.08;;;5.30;93.60;;;;;;5135549;27;20061;-69
2021/04/10 00:34:37;;;;;;;10.13;3.42;;;5.30;93.60;;;;;;5135152;27;20039;-69
2021/04/10 00:37:03;;;;;;;11.63;3.22;;;5.30;93.70;;;;;;5134993;27;20475;-69
2021/04/10 00:39:29;;;;;;;12.02;3.00;;;5.40;93.50;;;;;;5134360;27;20039;-69
2021/04/10 00:41:54;;;;;;;9.00;2.78;;;5.50;93.50;;;;;;5135314;27;20043;-69
2021/04/10 00:44:20;;;;;;;10.73;2.97;;;5.50;93.40;;;;;;5133966;27;20062;-69
2021/04/10 00:46:46;;;;;;;9.43;2.72;;;5.50;93.30;;;;;;5134641;27;20375;-69
2021/04/10 00:49:12;;;;;;;14.68;3.65;;;5.60;93.50;;;;;;5134979;27;20046;-69
2021/04/10 00:51:38;;;;;;;14.13;2.70;;;5.60;93.40;;;;;;5135138;27;20035;-69
2021/04/10 00:54:04;;;;;;;7.00;2.88;;;5.60;93.30;;;;;;5134922;27;20035;-69
2021/04/10 00:56:30;;;;;;;10.52;3.42;;;5.60;93.20;;;;;;5133254;27;20031;-69
2021/04/10 00:58:56;;;;;;;7.75;2.92;;;5.60;93.30;;;;;;5133739;27;20042;-69
2021/04/10 01:01:21;;;;;;;9.05;3.00;;;5.60;93.30;;;;;;5135034;27;20475;-69
2021/04/10 01:03:47;;;;;;;10.57;2.83;;;5.60;93.10;;;;;;5133873;27;20096;-69
2021/04/10 01:06:13;;;;;;;6.13;2.50;;;5.60;93.20;;;;;;5134124;27;20111;-69
2021/04/10 01:08:39;;;;;;;12.43;2.80;;;5.60;93.30;;;;;;5135137;27;20439;-69
2021/04/10 01:11:11;;;;;;;11.73;2.70;;;5.60;93.30;;;;;;5134989;27;20466;-69
2021/04/10 01:13:59;;;;;;;8.07;2.78;;;5.70;93.10;;;;;;5134608;27;20038;-69
2021/04/10 01:16:31;;;;;;;8.45;2.67;;;5.70;93.10;;;;;;5134155;27;20035;-69
2021/04/10 01:19:18;;;;;;;8.50;3.00;;;5.70;93.10;;;;;;5134493;27;20031;-69
2021/04/10 01:21:54;;;;;;;11.60;2.70;;;5.60;93.10;;;;;;5134847;27;20035;-69
2021/04/10 01:24:29;;;;;;;8.55;2.72;;;5.70;93.20;;;;;;5134451;27;20394;-69
2021/04/10 01:27:07;;;;;;;9.27;2.85;;;5.70;93.10;;;;;;5134396;27;20035;-69
2021/04/10 01:29:55;;;;;;;12.88;2.63;;;5.70;93.10;;;;;;5133707;27;20039;-69
2021/04/10 01:32:24;;;;;;;9.10;2.50;;;5.80;93.10;;;;;;5134722;27;20035;-69
2021/04/10 01:34:57;;;;;;;10.85;2.97;;;5.60;93.10;;;;;;5133949;27;20054;-69
2021/04/10 01:37:31;;;;;;;11.07;3.25;;;5.60;93.20;;;;;;5134510;27;20081;-69
2021/04/10 01:40:02;;;;;;;19.00;3.63;;;5.60;93.10;;;;;;5134905;27;20043;-69
2021/04/10 01:42:29;;;;;;;8.13;2.60;;;5.50;93.20;;;;;;5134271;27;20047;-69
2021/04/10 01:44:58;;;;;;;10.95;2.53;;;5.50;93.20;;;;;;5133909;27;20057;-69
2021/04/10 01:47:24;;;;;;;6.72;2.33;;;5.60;93.10;;;;;;5134635;27;20043;-69
2021/04/10 01:49:50;;;;;;;8.45;2.30;;;5.60;93.10;;;;;;5136174;27;20035;-69
2021/04/10 01:52:18;;;;;;;9.15;2.80;;;5.60;93.20;;;;;;5138503;27;20070;-69
2021/04/10 01:54:45;;;;;;;9.27;3.60;;;5.50;93.10;;;;;;5138012;27;20035;-69
2021/04/10 01:57:12;;;;;;;12.38;3.03;;;5.50;93.20;;;;;;5138408;27;20084;-69
2021/04/10 01:59:45;;;;;;;11.25;3.28;;;5.60;93.20;;;;;;5138301;27;20479;-69
2021/04/10 02:02:13;;;;;;;10.02;3.15;;;5.50;93.20;;;;;;5138360;27;20039;-69
2021/04/10 02:04:42;;;;;;;11.52;3.08;;;5.60;93.20;;;;;;5137877;27;20031;-69
2021/04/10 02:07:10;;;;;;;8.00;3.42;;;5.60;93.20;;;;;;5137889;27;20035;-69
2021/04/10 02:09:39;;;;;;;10.00;3.05;;;5.50;93.10;;;;;;5137966;27;20042;-69
2021/04/10 02:12:06;;;;;;;8.48;3.60;;;5.50;93.10;;;;;;5137976;27;20435;-69
2021/04/10 02:14:33;;;;;;;14.63;3.90;;;5.60;93.10;;;;;;5138077;27;20085;-69
2021/04/10 02:16:59;;;;;;;11.77;2.72;;;5.50;93.10;;;;;;5137811;27;20056;-69
2021/04/10 02:19:25;;;;;;;10.68;3.00;;;5.60;93.10;;;;;;5137771;27;20035;-69
2021/04/10 02:21:51;;;;;;;10.85;3.00;;;5.50;93.10;;;;;;5137767;27;20505;-69
2021/04/10 02:24:17;;;;;;;7.15;3.22;;;5.50;93.10;;;;;;5138251;27;20130;-69
2021/04/10 02:26:43;;;;;;;8.05;3.33;;;5.50;93.20;;;;;;5137497;27;20453;-68
2021/04/10 02:29:10;;;;;;;11.73;3.22;;;5.50;93.20;;;;;;5138252;27;20039;-69
2021/04/10 02:31:53;;;;;;;10.75;3.85;;;5.50;93.20;;;;;;5137811;27;20038;-69
2021/04/10 02:34:23;;;;;;;11.15;2.88;;;5.50;93.10;;;;;;5137837;27;20043;-69
2021/04/10 02:36:52;;;;;;;13.75;3.55;;;5.50;93.20;;;;;;5137531;27;20045;-69
2021/04/10 02:39:19;;;;;;;11.38;3.47;;;5.50;93.30;;;;;;5137546;27;20039;-69
2021/04/10 02:41:48;;;;;;;12.00;2.70;;;5.50;93.40;;;;;;5137437;27;20035;-69
2021/04/10 02:44:15;;;;;;;9.57;2.92;;;5.40;93.30;;;;;;5137739;27;20059;-69
2021/04/10 02:46:46;;;;;;;10.43;3.15;;;5.40;93.30;;;;;;5137055;27;20035;-69
2021/04/10 02:49:17;;;;;;;8.77;4.03;;;5.40;93.30;;;;;;5137458;27;20042;-69
2021/04/10 02:51:46;;;;;;;12.75;3.83;;;5.40;93.30;;;;;;5136160;27;20088;-69
2021/04/10 02:54:16;;;;;;;13.52;3.60;;;5.40;93.20;;;;;;5137269;27;20563;-69
2021/04/10 02:56:46;;;;;;;11.25;3.92;;;5.40;93.30;;;;;;5136861;27;20039;-69
2021/04/10 02:59:13;;;;;;;9.23;3.10;;;5.40;93.30;;;;;;5137681;27;20039;-69
2021/04/10 03:01:40;;;;;;;6.97;3.05;;;5.40;93.30;;;;;;5136997;27;20114;-69
2021/04/10 03:04:09;;;;;;;10.52;2.97;;;5.40;93.30;;;;;;5137642;27;20046;-69
2021/04/10 03:06:35;;;;;;;11.77;3.28;;;5.40;93.40;;;;;;5136643;27;20047;-69
2021/04/10 03:09:02;;;;;;;10.57;3.38;;;5.40;93.40;;;;;;5137406;27;20474;-69
2021/04/10 03:11:29;;;;;;;12.52;4.20;;;5.40;93.30;;;;;;5137096;27;20042;-69
2021/04/10 03:13:54;;;;;;;13.52;3.70;;;5.30;93.30;;;;;;5137168;27;20042;-69
2021/04/10 03:16:21;;;;;;;11.80;5.32;;;5.30;93.40;;;;;;5137139;27;20035;-69
2021/04/10 03:18:51;;;;;;;9.88;3.40;;;5.30;93.40;;;;;;5136704;27;20031;-69
2021/04/10 03:21:17;;;;;;;8.30;2.97;;;5.30;93.40;;;;;;5137113;27;20353;-69
2021/04/10 03:23:43;;;;;;;9.32;3.42;;;5.30;93.40;;;;;;5136682;27;20146;-69
2021/04/10 03:26:08;;;;;;;14.63;4.40;;;5.30;93.40;;;;;;5136324;27;20122;-69
2021/04/10 03:28:35;;;;;;;18.75;3.67;;;5.30;93.40;;;;;;5136615;27;20048;-69
2021/04/10 03:31:02;;;;;;;9.02;3.40;;;5.20;93.50;;;;;;5136638;27;20039;-69
2021/04/10 03:33:35;;;;;;;11.98;3.75;;;5.20;93.60;;;;;;5136722;27;20479;-69
2021/04/10 03:36:02;;;;;;;10.73;4.30;;;5.20;93.60;;;;;;5136162;27;20125;-69
2021/04/10 03:38:28;;;;;;;10.43;3.38;;;5.30;93.60;;;;;;5136424;27;20035;-69
2021/04/10 03:40:54;;;;;;;15.32;4.07;;;5.20;93.50;;;;;;5136897;27;20118;-69
2021/04/10 03:43:20;;;;;;;13.73;3.65;;;5.30;93.50;;;;;;5136378;27;20039;-69
2021/04/10 03:45:46;;;;;;;14.40;3.75;;;5.30;93.50;;;;;;5136002;27;20456;-69
2021/04/10 03:48:14;;;;;;;9.20;3.22;;;5.30;93.40;;;;;;5136544;27;20039;-69
2021/04/10 03:50:40;;;;;;;14.15;3.53;;;5.30;93.40;;;;;;5136056;27;20108;-69
2021/04/10 03:53:06;;;;;;;11.40;4.28;;;5.30;93.50;;;;;;5136615;27;20043;-69
2021/04/10 03:55:32;;;;;;;11.70;3.70;;;5.30;93.50;;;;;;5135578;27;20042;-69
2021/04/10 03:58:02;;;;;;;9.98;3.58;;;5.30;93.50;;;;;;5136094;27;20035;-69
2021/04/10 04:00:28;;;;;;;9.13;3.47;;;5.30;93.60;;;;;;5135984;27;20495;-69
2021/04/10 04:02:55;;;;;;;10.10;3.58;;;5.30;93.60;;;;;;5136084;27;20039;-69
2021/04/10 04:05:21;;;;;;;11.73;3.50;;;5.30;93.60;;;;;;5135767;27;20096;-69
2021/04/10 04:07:46;;;;;;;12.13;4.03;;;5.30;93.90;;;;;;5135819;27;20444;-69
2021/04/10 04:10:13;;;;;;;11.40;5.07;;;5.30;93.90;;;;;;5134467;27;20455;-69
2021/04/10 04:12:38;;;;;;;8.25;3.88;;;5.20;93.60;;;;;;5135203;27;20035;-69
2021/04/10 04:15:05;;;;;;;10.23;3.85;;;5.20;93.50;;;;;;5135503;27;20106;-69
2021/04/10 04:17:31;;;;;;;9.55;4.15;;;5.20;93.50;;;;;;5135852;27;20046;-69
2021/04/10 04:19:56;;;;;;;11.52;3.45;;;5.20;93.60;;;;;;5136046;27;20031;-69
2021/04/10 04:22:22;;;;;;;9.82;3.15;;;5.20;93.50;;;;;;5135533;27;20496;-68
2021/04/10 04:24:48;;;;;;;7.85;3.42;;;5.30;93.70;;;;;;5135544;27;20039;-69
2021/04/10 04:27:14;;;;;;;14.13;4.18;;;5.30;93.80;;;;;;5135360;27;20046;-69
2021/04/10 04:29:41;;;;;;;10.18;3.47;;;5.20;93.80;;;;;;5135603;27;20046;-69
2021/04/10 04:32:07;;;;;;;7.88;3.50;;;5.10;93.70;;;;;;5134088;27;20046;-69
2021/04/10 04:34:32;;;;;;;11.50;4.28;;;5.00;93.90;;;;;;5135144;27;20046;-69
2021/04/10 04:36:58;;;;;;;13.63;4.30;;;5.00;94.00;;;;;;5135294;27;20399;-69
2021/04/10 04:39:24;;;;;;;15.45;4.43;;;5.00;94.00;;;;;;5135186;27;20118;-69
2021/04/10 04:41:49;;;;;;;12.43;3.42;;;4.90;93.90;;;;;;5135071;27;20035;-69
2021/04/10 04:44:15;;;;;;;15.35;4.57;;;4.90;94.00;;;;;;5135063;27;20055;-69
2021/04/10 04:46:41;;;;;;;13.43;3.58;;;4.80;94.00;;;;;;5135088;27;20039;-69
2021/04/10 04:49:06;;;;;;;9.45;3.22;;;4.90;94.00;;;;;;5135238;27;20501;-69
2021/04/10 04:51:33;;;;;;;16.67;5.15;;;4.80;93.70;;;;;;5134998;27;20380;-69
2021/04/10 04:53:58;;;;;;;10.30;3.13;;;4.80;93.10;;;;;;5134905;27;20047;-69
2021/04/10 04:56:24;;;;;;;12.18;3.55;;;4.80;92.90;;;;;;5134640;27;20475;-69
2021/04/10 04:58:50;;;;;;;11.90;2.42;;;4.90;92.10;;;;;;5134955;27;20043;-69
2021/04/10 05:01:15;;;;;;;12.32;3.45;;;4.80;90.90;;;;;;5135192;27;20114;-69
2021/04/10 05:03:41;;;;;;;12.98;2.30;;;4.70;90.60;;;;;;5134890;27;20054;-69
2021/04/10 05:06:07;;;;;;;8.55;2.30;;;4.70;90.40;;;;;;5134141;27;20419;-69
2021/04/10 05:08:32;;;;;;;9.85;2.25;;;4.60;90.70;;;;;;5135336;27;20522;-70
2021/04/10 05:10:58;;;;;;;11.75;2.15;;;4.70;90.60;;;;;;5134644;27;20486;-69
2021/04/10 05:13:24;;;;;;;9.05;2.05;;;4.70;90.60;;;;;;5135117;27;20042;-69
2021/04/10 05:15:49;;;;;;;6.32;1.65;;;4.70;90.60;;;;;;5134397;27;20402;-69
2021/04/10 05:18:15;;;;;;;8.98;2.95;;;4.70;90.60;;;;;;5134985;27;20042;-70
2021/04/10 05:20:40;;;;;;;9.70;2.45;;;4.70;90.60;;;;;;5134669;27;20047;-69
2021/04/10 05:23:07;;;;;;;11.25;2.17;;;4.70;90.60;;;;;;5134478;27;20035;-69
2021/04/10 05:25:33;;;;;;;12.13;2.15;;;4.70;90.70;;;;;;5133359;27;20047;-70
2021/04/10 05:27:58;;;;;;;7.18;2.95;;;4.80;90.90;;;;;;5134556;27;20030;-69
2021/04/10 05:30:24;;;;;;;9.98;2.75;;;4.70;90.70;;;;;;5134488;27;20049;-69
2021/04/10 05:32:50;;;;;;;14.95;4.20;;;4.80;90.60;;;;;;5134666;27;20049;-69
2021/04/10 05:35:16;;;;;;;18.13;4.07;;;4.80;90.30;;;;;;5134194;27;20035;-69
2021/04/10 05:37:42;;;;;;;21.52;4.18;;;4.80;90.30;;;;;;5134855;27;20110;-69
2021/04/10 05:40:08;;;;;;;21.45;4.95;;;4.80;90.40;;;;;;5134575;27;20062;-69
2021/04/10 05:42:34;;;;;;;15.88;4.90;;;4.90;90.30;;;;;;5134130;27;20035;-69
2021/04/10 05:45:00;;;;;;;17.58;4.88;;;5.00;90.00;;;;;;5133934;27;20050;-69
2021/04/10 05:47:25;;;;;;;16.13;4.82;;;5.00;89.60;;;;;;5134263;27;20035;-69
2021/04/10 05:49:51;;;;;;;19.67;4.97;;;5.00;89.40;;;;;;5134278;27;20076;-69
2021/04/10 05:52:18;;;;;;;13.75;3.60;;;5.10;89.00;;;;;;5134798;27;20043;-69
2021/04/10 05:54:44;;;;;;;24.52;5.88;;;5.10;88.50;;;;;;5133915;27;20046;-69
2021/04/10 05:57:09;;;;;;;11.05;3.25;;;5.10;88.70;;;;;;5133272;28;20039;-69
2021/04/10 05:59:35;;;;;;;18.30;3.08;;;5.00;89.30;;;;;;5134163;27;20031;-69
2021/04/10 06:02:05;;;;;;;9.30;3.03;;;5.10;89.50;;;;;;5134287;27;20078;-69
2021/04/10 06:04:37;;;;;;;11.05;2.78;;;5.10;89.40;;;;;;5133149;27;20475;-70
2021/04/10 06:07:04;;;;;;;10.00;2.88;;;5.20;89.40;;;;;;5133811;27;20065;-69
2021/04/10 06:09:30;;;;;;;17.20;3.30;;;5.20;89.10;;;;;;5134150;27;20483;-69
2021/04/10 06:11:56;;;;;;;11.27;2.15;;;5.30;89.00;;;;;;5134134;27;20035;-69
2021/04/10 06:14:22;;;;;;;10.40;2.25;;;5.30;89.00;;;;;;5134315;27;20063;-69
2021/04/10 06:16:51;;;;;;;10.77;2.42;;;5.30;88.20;;;;;;5134039;27;20036;-69
2021/04/10 06:19:18;;;;;;;7.90;2.03;;;5.30;88.10;;;;;;5134024;27;20539;-70
2021/04/10 06:21:44;;;;;;;7.82;1.83;;;5.40;88.20;;;;;;5133840;27;20034;-69
2021/04/10 06:24:10;;;;;;;12.63;1.92;;;5.40;88.20;;;;;;5134042;27;20044;-69
2021/04/10 06:26:36;;;;;;;14.13;2.42;;;5.40;87.90;;;;;;5133404;27;20039;-67
2021/04/10 06:29:02;;;;;;;26.67;3.40;;;5.40;87.90;;;;;;5133088;28;20376;-67
2021/04/10 06:31:28;;;;;;;7.25;1.65;;;5.60;86.20;;;;;;5134186;27;20047;-66
2021/04/10 06:33:53;;;;;;;10.32;2.17;;;5.70;85.80;;;;;;5132622;28;20394;-66
2021/04/10 06:36:19;;;;;;;13.85;2.30;;;5.60;87.00;;;;;;5135725;27;20039;-66
2021/04/10 06:38:44;;;;;;;10.90;2.80;;;5.70;86.10;;;;;;5137541;27;20031;-66
2021/04/10 06:41:14;;;;;;;8.57;1.98;;;5.70;85.70;;;;;;5137538;27;20051;-67
2021/04/10 06:43:43;;;;;;;6.30;1.83;;;5.70;85.10;;;;;;5137865;27;20039;-67
2021/04/10 06:46:11;;;;;;;10.88;1.60;;;5.70;85.50;;;;;;5137174;27;20061;-67
2021/04/10 06:48:42;;;;;;;14.60;2.92;;;5.80;83.30;;;;;;5137214;27;20039;-67
2021/04/10 06:51:10;;;;;;;9.57;2.13;;;5.90;83.20;;;;;;5137303;27;20067;-67
2021/04/10 06:53:43;;;;;;;11.75;2.33;;;5.90;83.40;;;;;;5137500;27;20043;-67
2021/04/10 06:56:11;;;;;;;6.18;2.47;;;5.90;83.80;;;;;;5137200;27;20092;-67
2021/04/10 06:59:01;;;;;;;12.05;2.85;;;6.00;83.20;;;;;;5137456;27;20035;-67
2021/04/10 07:01:27;;;;;;;8.80;1.95;;;6.00;83.90;;;;;;5136136;27;20039;-68
2021/04/10 07:03:53;;;;;;;13.10;2.40;;;6.00;82.60;;;;;;5135965;27;20523;-67
2021/04/10 07:06:19;;;;;;;8.88;1.90;;;6.10;82.40;;;;;;5136561;27;20035;-68
2021/04/10 07:08:45;;;;;;;9.43;2.47;;;6.00;82.30;;;;;;5137178;27;20467;-67
2021/04/10 07:11:15;;;;;;;12.63;2.35;;;6.10;81.80;;;;;;5136822;27;20039;-68
2021/04/10 07:13:42;;;;;;;10.35;1.98;;;6.10;80.70;;;;;;5136824;27;20117;-67
2021/04/10 07:16:09;;;;;;;14.63;2.67;;;6.20;81.80;;;;;;5136465;27;20106;-68
2021/04/10 07:18:35;;;;;;;7.97;2.25;;;6.20;81.40;;;;;;5137006;27;20055;-68
2021/04/10 07:21:24;;;;;;;9.43;1.92;;;6.30;80.30;;;;;;5136817;27;20035;-68
2021/04/10 07:23:50;;;;;;;8.75;2.42;;;6.40;80.10;;;;;;5136696;27;20130;-67
2021/04/10 07:26:18;;;;;;;8.98;2.00;;;6.40;80.30;;;;;;5136395;27;20042;-68
2021/04/10 07:28:45;;;;;;;10.70;1.95;;;6.60;78.00;;;;;;5137026;27;20070;-68
2021/04/10 07:31:16;;;;;;;10.20;1.90;;;6.60;77.00;;;;;;5136739;27;20093;-68
2021/04/10 07:33:43;;;;;;;8.90;1.88;;;6.50;75.30;;;;;;5136756;27;20039;-68
2021/04/10 07:36:13;;;;;;;13.13;2.08;;;6.80;73.10;;;;;;5136704;27;20035;-67
2021/04/10 07:38:43;;;;;;;8.15;1.52;;;6.80;74.00;;;;;;5136625;27;20035;-68
2021/04/10 07:41:14;;;;;;;8.50;1.88;;;6.90;73.60;;;;;;5136813;27;20126;-67
2021/04/10 07:43:43;;;;;;;10.68;1.60;;;6.90;75.10;;;;;;5135068;27;20487;-68
2021/04/10 07:46:22;;;;;;;11.15;1.70;;;7.10;73.90;;;;;;5135982;27;20027;-68
2021/04/10 07:49:12;;;;;;;8.52;1.38;;;7.20;73.30;;;;;;5135989;27;20035;-68
2021/04/10 07:51:55;;;;;;;8.35;2.03;;;7.30;71.70;;;;;;5136267;27;20111;-68
2021/04/10 07:54:36;;;;;;;7.53;1.33;;;7.20;70.80;;;;;;5136137;27;20422;-68
2021/04/10 07:57:04;;;;;;;9.75;2.53;;;7.20;70.40;;;;;;5136253;27;20118;-70
2021/04/10 07:59:33;;;;;;;6.50;1.35;;;7.00;69.90;;;;;;5135052;27;20465;-72
2021/04/10 08:02:09;;;;;;;7.45;1.73;;;7.10;69.40;;;;;;5134967;27;20097;-72
2021/04/10 08:04:36;;;;;;;6.82;1.55;;;7.10;69.00;;;;;;5135652;27;20050;-72
2021/04/10 08:07:02;;;;;;;4.40;1.20;;;7.10;70.80;;;;;;5135645;27;20150;-72
2021/04/10 08:09:36;;;;;;;6.00;1.58;;;7.20;68.50;;;;;;5135783;27;20063;-73
2021/04/10 08:12:07;;;;;;;11.45;2.47;;;7.20;68.40;;;;;;5135591;27;20035;-73
2021/04/10 08:14:44;;;;;;;8.60;1.67;;;7.20;67.90;;;;;;5135508;27;20050;-73
2021/04/10 08:17:11;;;;;;;5.03;1.20;;;7.40;68.00;;;;;;5135748;27;20122;-73
2021/04/10 08:19:37;;;;;;;10.00;2.22;;;7.40;67.80;;;;;;5134541;27;20084;-73
2021/04/10 08:22:04;;;;;;;9.50;1.80;;;7.50;67.80;;;;;;5134486;27;20129;-73
2021/04/10 08:24:39;;;;;;;9.27;1.67;;;7.40;68.10;;;;;;5135347;27;20042;-73
2021/04/10 08:27:08;;;;;;;6.30;1.75;;;7.60;68.20;;;;;;5134506;27;20039;-73
2021/04/10 08:29:35;;;;;;;6.93;1.50;;;7.70;68.00;;;;;;5135565;27;20514;-73
2021/04/10 08:32:01;;;;;;;7.60;2.10;;;7.70;67.40;;;;;;5135215;27;20439;-73
2021/04/10 08:34:28;;;;;;;9.55;2.20;;;7.60;67.10;;;;;;5135778;27;20442;-73
2021/04/10 08:36:58;;;;;;;9.68;1.77;;;7.80;66.70;;;;;;5135822;27;20047;-73
2021/04/10 08:39:31;;;;;;;7.72;1.48;;;7.80;66.00;;;;;;5135694;27;20039;-73
2021/04/10 08:41:59;;;;;;;7.78;1.63;;;7.90;65.60;;;;;;5134015;27;20091;-73
2021/04/10 08:44:31;;;;;;;8.02;1.15;;;7.80;65.00;;;;;;5135342;27;20035;-74
2021/04/10 08:46:58;;;;;;;12.35;1.70;;;7.80;66.50;;;;;;5135734;27;20031;-73
2021/04/10 08:49:25;;;;;;;8.45;1.52;;;7.90;65.10;;;;;;5135021;27;20035;-73
2021/04/10 08:51:56;;;;;;;6.22;1.30;;;7.90;65.30;;;;;;5135165;27;20038;-74
2021/04/10 08:54:23;;;;;;;10.23;1.67;;;7.80;65.30;;;;;;5134767;27;20478;-76
2021/04/10 08:56:50;;;;;;;8.38;1.58;;;8.00;65.70;;;;;;5134095;27;20523;-74
2021/04/10 08:59:19;;;;;;;7.22;1.50;;;8.20;65.60;;;;;;5134768;27;20498;-75
2021/04/10 09:02:08;;;;;;;8.75;1.70;;;8.20;63.60;;;;;;5134720;27;20071;-73
2021/04/10 09:04:54;;;;;;;17.02;3.80;;;8.30;63.90;;;;;;5134632;27;20031;-73
2021/04/10 09:07:35;;;;;;;4.72;1.00;;;8.20;63.40;;;;;;5134356;27;20525;-74
2021/04/10 09:10:01;;;;;;;8.85;1.95;;;8.40;63.30;;;;;;5134740;27;20082;-74
2021/04/10 09:12:27;;;;;;;7.22;1.85;;;8.20;64.10;;;;;;5133444;27;20119;-74
2021/04/10 09:14:53;;;;;;;7.25;1.58;;;8.30;64.10;;;;;;5134252;27;20483;-74
2021/04/10 09:17:18;;;;;;;7.03;1.90;;;8.30;65.30;;;;;;5134819;27;20467;-74
2021/04/10 09:19:45;;;;;;;8.82;2.08;;;8.20;64.20;;;;;;5115597;27;20036;-74
2021/04/10 09:22:18;;;;;;;9.88;1.45;;;8.40;64.40;;;;;;5113773;28;20035;-74
2021/04/10 09:24:46;;;;;;;6.25;1.25;;;8.50;64.30;;;;;;5114115;28;20043;-75
2021/04/10 09:27:24;;;;;;;13.88;1.90;;;8.50;64.10;;;;;;5113909;28;20563;-75
2021/04/10 09:29:54;;;;;;;8.68;1.50;;;8.60;63.90;;;;;;5113879;28;20039;-74
2021/04/10 09:32:35;;;;;;;7.82;1.85;;;8.40;65.50;;;;;;5114213;28;20467;-74
2021/04/10 09:35:06;;;;;;;12.93;1.77;;;8.50;64.50;;;;;;5114051;28;20070;-74
2021/04/10 09:37:32;;;;;;;6.60;1.38;;;8.50;64.00;;;;;;5113845;28;20082;-75
2021/04/10 09:40:09;;;;;;;8.00;1.38;;;8.70;64.10;;;;;;5112499;28;20084;-74
2021/04/10 09:42:34;;;;;;;5.07;1.80;;;8.80;63.30;;;;;;5112526;28;20035;-74
2021/04/10 09:45:23;;;;;;;7.50;1.50;;;8.70;62.40;;;;;;5113755;28;20145;-74
2021/04/10 09:48:00;;;;;;;7.10;2.10;;;8.60;63.00;;;;;;5114251;28;20038;-74
2021/04/10 09:50:32;;;;;;;9.65;2.20;;;8.40;64.30;;;;;;5113785;28;20070;-74
2021/04/10 09:52:59;;;;;;;9.35;1.75;;;8.40;64.30;;;;;;5113807;28;20036;-74
2021/04/10 09:55:27;;;;;;;4.72;1.52;;;8.40;64.10;;;;;;5113735;28;20487;-74
2021/04/10 09:57:54;;;;;;;6.85;1.52;;;8.40;64.90;;;;;;5113502;28;20445;-74
2021/04/10 10:00:34;;;;;;;8.98;1.58;;;8.20;65.10;;;;;;5113476;28;20599;-74
2021/04/10 10:03:03;;;;;;;5.57;1.63;;;8.30;64.90;;;;;;5113635;28;20462;-74
2021/04/10 10:05:33;;;;;;;8.48;1.83;;;8.30;65.60;;;;;;5113395;28;20088;-74
2021/04/10 10:08:11;;;;;;;8.23;2.10;;;8.40;64.50;;;;;;5113442;28;20035;-75
2021/04/10 10:10:44;;;;;;;6.80;1.90;;;8.60;65.30;;;;;;5114967;28;20109;-75
2021/04/10 10:13:15;;;;;;;5.30;1.90;;;8.60;64.10;;;;;;5117629;28;20042;-74
2021/04/10 10:15:42;;;;;;;7.95;1.75;;;8.50;64.50;;;;;;5117192;28;20042;-74
2021/04/10 10:18:18;;;;;;;9.45;1.83;;;8.30;64.70;;;;;;5117973;28;20068;-75
2021/04/10 10:21:11;;;;;;;4.25;1.88;;;8.40;65.10;;;;;;5116231;28;20043;-74
2021/04/10 10:23:54;;;;;;;6.70;1.83;;;8.50;64.50;;;;;;5116769;28;20039;-74
2021/04/10 10:26:28;;;;;;;6.87;2.10;;;8.20;64.10;;;;;;5117230;28;20039;-75
2021/04/10 10:29:04;;;;;;;7.60;1.67;;;8.30;64.30;;;;;;5117725;28;20035;-75
2021/04/10 10:31:39;;;;;;;8.82;2.08;;;8.40;64.80;;;;;;5117515;27;20115;-75
2021/04/10 10:34:07;;;;;;;6.85;2.25;;;8.50;64.30;;;;;;5117270;28;20093;-75
2021/04/10 10:36:35;;;;;;;5.53;2.17;;;8.60;63.40;;;;;;5117152;28;20039;-74
2021/04/10 10:39:03;;;;;;;4.82;1.50;;;8.70;63.50;;;;;;5117422;28;20111;-74
2021/04/10 10:41:29;;;;;;;9.52;1.70;;;8.60;63.20;;;;;;5117484;28;20044;-75
2021/04/10 10:44:01;;;;;;;5.68;2.13;;;8.70;63.10;;;;;;5116816;28;20035;-74
2021/04/10 10:46:27;;;;;;;8.52;1.38;;;8.60;63.30;;;;;;5116778;28;20039;-75
2021/04/10 10:48:53;;;;;;;6.55;1.40;;;8.30;63.80;;;;;;5116943;28;20035;-74
2021/04/10 10:51:21;;;;;;;10.60;1.63;;;8.30;64.90;;;;;;5117210;28;20040;-74
2021/04/10 10:53:52;;;;;;;5.90;1.83;;;8.20;64.80;;;;;;5117319;28;20108;-74
2021/04/10 10:56:25;;;;;;;9.13;1.60;;;8.40;62.80;;;;;;5116353;27;20089;-74
2021/04/10 10:59:03;;;;;;;4.55;1.30;;;8.50;62.30;;;;;;5117151;28;20036;-75
2021/04/10 11:01:34;;;;;;;5.57;1.60;;;8.50;62.50;;;;;;5116381;28;20054;-74
2021/04/10 11:03:59;;;;;;;8.07;1.23;;;8.60;62.40;;;;;;5117190;28;20066;-74
2021/04/10 11:06:34;;;;;;;4.47;1.52;;;8.80;63.10;;;;;;5116332;28;20070;-74
2021/04/10 11:09:03;;;;;;;7.55;1.60;;;8.80;61.50;;;;;;5116454;28;20132;-75
2021/04/10 11:11:33;;;;;;;6.78;1.30;;;8.80;61.70;;;;;;5116285;28;20032;-74
2021/04/10 11:13:59;;;;;;;7.63;1.48;;;8.70;61.70;;;;;;5116808;28;20478;-75
2021/04/10 11:16:25;;;;;;;8.48;1.58;;;8.70;61.10;;;;;;5116521;28;20040;-74
2021/04/10 11:18:56;;;;;;;5.47;1.95;;;8.90;60.50;;;;;;5116292;28;20035;-74
2021/04/10 11:21:26;;;;;;;4.28;1.30;;;8.80;60.00;;;;;;5115736;28;20038;-75
2021/04/10 11:23:56;;;;;;;7.85;1.50;;;8.80;59.90;;;;;;5115904;28;20550;-74
2021/04/10 11:26:48;;;;;;;5.32;1.42;;;8.90;59.80;;;;;;5116022;28;20036;-74
2021/04/10 11:29:29;;;;;;;5.80;2.15;;;8.90;59.90;;;;;;5115098;28;20066;-74
2021/04/10 11:32:05;;;;;;;3.33;1.58;;;8.80;59.50;;;;;;5115834;28;20042;-75
2021/04/10 11:34:38;;;;;;;5.60;1.10;;;8.80;60.80;;;;;;5116016;28;20044;-75
2021/04/10 11:37:07;;;;;;;4.45;1.50;;;8.80;59.50;;;;;;5116216;28;20036;-75
2021/04/10 11:40:02;;;;;;;6.22;1.58;;;8.80;60.40;;;;;;5116479;28;20479;-76
2021/04/10 11:42:38;;;;;;;;;;;8.80;60.10;;;;;;5116402;28;20039;-75
2021/04/10 11:45:08;;;;;;;3.45;1.80;;;8.90;58.00;;;;;;5115977;27;19915;-75
2021/04/10 11:47:37;;;;;;;6.35;1.50;;;8.90;58.30;;;;;;5116085;28;20042;-75
2021/04/10 11:50:17;;;;;;;6.53;1.35;;;8.90;58.00;;;;;;5115811;27;20546;-75
2021/04/10 11:52:44;;;;;;;2.13;0.95;;;8.80;58.40;;;;;;5115149;28;20046;-75
2021/04/10 11:55:14;;;;;;;6.10;1.23;;;8.90;59.30;;;;;;5115375;28;20032;-75
2021/04/10 11:57:41;;;;;;;4.10;1.02;;;8.90;58.90;;;;;;5115635;28;20046;-75
2021/04/10 12:00:23;;;;;;;4.47;1.00;;;8.90;57.40;;;;;;5115815;28;20126;-75
2021/04/10 12:02:48;;;;;;;3.22;1.10;;;8.90;58.30;;;;;;5116221;28;20028;-75
2021/04/10 12:05:17;;;;;;;4.65;1.50;;;8.80;58.40;;;;;;5115239;28;20040;-75
2021/04/10 12:08:26;;;;;;;2.83;0.98;;;8.80;58.70;;;;;;5115122;28;20047;-75
2021/04/10 12:10:52;;;;;;;5.95;1.25;;;9.10;57.70;;;;;;5115338;28;20040;-75
2021/04/10 12:13:19;;;;;;;6.78;1.80;;;9.00;58.70;;;;;;5115113;28;20035;-75
2021/04/10 12:15:56;;;;;;;4.18;1.73;;;9.20;57.10;;;;;;5115011;28;20035;-75
2021/04/10 12:18:24;;;;;;;5.70;1.63;;;9.20;56.40;;;;;;5115303;28;20050;-74
2021/04/10 12:20:51;;;;;;;6.50;1.25;;;8.80;58.20;;;;;;5115226;28;20061;-74
2021/04/10 12:23:17;;;;;;;4.93;1.35;;;8.80;58.60;;;;;;5115089;28;20081;-75
2021/04/10 12:25:44;;;;;;;8.02;1.95;;;8.70;58.50;;;;;;5115094;28;20034;-75
2021/04/10 12:28:10;;;;;;;8.88;1.58;;;8.90;57.10;;;;;;5115051;28;20036;-75
2021/04/10 12:30:36;;;;;;;7.75;1.48;;;8.90;57.80;;;;;;5114985;28;20152;-74
2021/04/10 12:33:02;;;;;;;3.60;1.40;;;8.80;58.40;;;;;;5113408;28;20036;-74
2021/04/10 12:35:28;;;;;;;4.95;1.42;;;9.10;57.50;;;;;;5115087;28;20159;-75
2021/04/10 12:37:54;;;;;;;14.30;2.45;;;8.90;57.90;;;;;;5115109;28;20035;-74
2021/04/10 12:40:21;;;;;;;6.25;1.63;;;8.90;58.40;;;;;;5115247;28;20046;-74
2021/04/10 12:42:48;;;;;;;9.43;1.70;;;8.80;58.10;;;;;;5114847;28;20039;-75
2021/04/10 12:45:14;;;;;;;6.70;1.33;;;8.90;58.50;;;;;;5113495;28;20031;-75
2021/04/10 12:47:40;;;;;;;5.47;1.77;;;9.00;58.70;;;;;;5114664;28;20472;-75
2021/04/10 12:50:07;;;;;;;3.60;1.60;;;9.00;58.90;;;;;;5114842;27;20039;-74
2021/04/10 12:52:35;;;;;;;4.78;1.20;;;9.00;59.20;;;;;;5114705;28;20092;-74
2021/04/10 12:55:01;;;;;;;7.05;1.65;;;9.00;58.60;;;;;;5113927;28;20046;-73
2021/04/10 12:57:27;;;;;;;7.75;1.58;;;8.90;58.60;;;;;;5112345;28;20031;-73
2021/04/10 12:59:53;;;;;;;5.43;2.13;;;8.80;59.20;;;;;;5111609;28;20036;-73
2021/04/10 13:02:19;;;;;;;5.95;1.50;;;8.80;58.60;;;;;;5113040;28;20050;-73